createdAt,value
2023-05-25T00:03:35.275Z,17.43
2023-05-25T00:06:04.124Z,17.37
2023-05-25T00:08:32.376Z,17.33
2023-05-25T00:11:00.992Z,17.31
2023-05-25T00:13:29.252Z,17.29
2023-05-25T00:15:58.282Z,17.26
2023-05-25T00:18:26.501Z,17.24
2023-05-25T00:20:54.790Z,17.21
2023-05-25T00:23:23.066Z,17.17
2023-05-25T00:25:51.195Z,17.14
2023-05-25T00:28:19.325Z,17.12
2023-05-25T00:30:48.016Z,17.10
2023-05-25T00:33:17.038Z,17.07
2023-05-25T00:35:45.673Z,17.05
2023-05-25T00:38:15.081Z,17.04
2023-05-25T00:40:43.630Z,17.03
2023-05-25T00:43:13.225Z,17.03
2023-05-25T00:45:42.838Z,17.02
2023-05-25T00:48:13.182Z,17.00
2023-05-25T00:50:43.477Z,17.00
2023-05-25T00:53:13.929Z,16.99
2023-05-25T00:55:49.849Z,16.99
2023-05-25T00:58:22.080Z,16.98
2023-05-25T01:00:52.373Z,16.98
2023-05-25T01:03:24.252Z,16.97
2023-05-25T01:05:55.455Z,16.96
2023-05-25T01:08:25.685Z,16.95
2023-05-25T01:10:57.399Z,16.95
2023-05-25T01:13:26.836Z,16.96
2023-05-25T01:15:56.289Z,16.95
2023-05-25T01:18:24.480Z,16.95
2023-05-25T01:21:15.010Z,16.94
2023-05-25T01:24:05.890Z,16.93
2023-05-25T01:26:42.877Z,16.92
2023-05-25T01:29:11.921Z,16.91
2023-05-25T01:31:41.575Z,16.88
2023-05-25T01:34:11.378Z,16.87
2023-05-25T01:36:39.499Z,16.85
2023-05-25T01:39:09.777Z,16.84
2023-05-25T01:41:37.895Z,16.81
2023-05-25T01:44:06.833Z,16.79
2023-05-25T01:46:41.010Z,16.79
2023-05-25T01:49:53.894Z,16.77
2023-05-25T01:52:27.325Z,16.75
2023-05-25T01:55:03.240Z,16.73
2023-05-25T01:57:36.168Z,16.71
2023-05-25T02:00:05.715Z,16.69
2023-05-25T02:02:34.801Z,16.69
2023-05-25T02:05:04.419Z,16.68
2023-05-25T02:07:34.000Z,16.65
2023-05-25T02:10:02.848Z,16.63
2023-05-25T02:12:31.201Z,16.61
2023-05-25T02:14:59.344Z,16.60
2023-05-25T02:17:27.553Z,16.57
2023-05-25T02:19:56.278Z,16.56
2023-05-25T02:22:24.543Z,16.54
2023-05-25T02:24:52.901Z,16.52
2023-05-25T02:27:21.414Z,16.51
2023-05-25T02:29:51.467Z,16.50
2023-05-25T02:32:20.232Z,16.51
2023-05-25T02:34:49.167Z,16.50
2023-05-25T02:37:17.499Z,16.48
2023-05-25T02:39:45.792Z,16.47
2023-05-25T02:42:14.207Z,16.45
2023-05-25T02:44:42.732Z,16.43
2023-05-25T02:47:11.485Z,16.42
2023-05-25T02:49:40.593Z,16.40
2023-05-25T02:52:09.216Z,16.39
2023-05-25T02:54:37.289Z,16.36
2023-05-25T02:57:06.341Z,16.34
2023-05-25T02:59:34.511Z,16.31
2023-05-25T03:02:04.455Z,16.28
2023-05-25T03:04:33.749Z,16.25
2023-05-25T03:07:02.473Z,16.21
2023-05-25T03:09:31.787Z,16.19
2023-05-25T03:12:00.620Z,16.17
2023-05-25T03:14:28.964Z,16.15
2023-05-25T03:16:57.763Z,16.12
2023-05-25T03:19:26.281Z,16.07
2023-05-25T03:21:54.433Z,16.04
2023-05-25T03:24:22.616Z,16.00
2023-05-25T03:26:50.813Z,15.96
2023-05-25T03:29:18.919Z,15.94
2023-05-25T03:31:47.026Z,15.93
2023-05-25T03:34:15.503Z,15.92
2023-05-25T03:36:43.583Z,15.90
2023-05-25T03:39:12.159Z,15.87
2023-05-25T03:41:40.442Z,15.88
2023-05-25T03:44:08.673Z,15.87
2023-05-25T03:46:36.887Z,15.86
2023-05-25T03:49:05.492Z,15.85
2023-05-25T03:51:34.282Z,15.84
2023-05-25T03:54:02.675Z,15.84
2023-05-25T03:56:30.932Z,15.83
2023-05-25T03:58:59.236Z,15.82
2023-05-25T04:01:27.455Z,15.79
2023-05-25T04:03:56.807Z,15.78
2023-05-25T04:06:25.569Z,15.77
2023-05-25T04:08:54.088Z,15.76
2023-05-25T04:11:22.536Z,15.75
2023-05-25T04:13:50.712Z,15.74
2023-05-25T04:16:19.396Z,15.72
2023-05-25T04:18:48.570Z,15.70
2023-05-25T04:21:16.616Z,15.69
2023-05-25T04:23:44.818Z,15.66
2023-05-25T04:26:13.333Z,15.65
2023-05-25T04:28:41.515Z,15.65
2023-05-25T04:31:09.840Z,15.62
2023-05-25T04:33:38.352Z,15.60
2023-05-25T04:36:07.431Z,15.58
2023-05-25T04:38:36.577Z,15.57
2023-05-25T04:41:05.922Z,15.57
2023-05-25T04:43:34.116Z,15.56
2023-05-25T04:46:02.301Z,15.55
2023-05-25T04:48:30.607Z,15.55
2023-05-25T04:50:58.655Z,15.53
2023-05-25T04:53:26.893Z,15.53
2023-05-25T04:55:55.004Z,15.55
2023-05-25T04:58:23.289Z,15.55
2023-05-25T05:00:52.733Z,15.54
2023-05-25T05:03:21.092Z,15.55
2023-05-25T05:05:49.826Z,15.58
2023-05-25T05:08:18.527Z,15.61
2023-05-25T05:10:46.771Z,15.63
2023-05-25T05:13:16.192Z,15.66
2023-05-25T05:15:44.655Z,15.68
2023-05-25T05:18:13.705Z,15.70
2023-05-25T05:20:42.074Z,15.73
2023-05-25T05:23:10.414Z,15.76
2023-05-25T05:25:39.063Z,15.79
2023-05-25T05:28:07.222Z,15.83
2023-05-25T05:30:35.367Z,15.88
2023-05-25T05:33:03.733Z,15.92
2023-05-25T05:35:32.468Z,15.98
2023-05-25T05:38:00.778Z,16.03
2023-05-25T05:40:28.984Z,16.07
2023-05-25T05:42:57.103Z,16.11
2023-05-25T05:45:25.204Z,16.15
2023-05-25T05:47:53.628Z,16.21
2023-05-25T05:50:22.627Z,16.28
2023-05-25T05:52:51.056Z,16.36
2023-05-25T05:55:19.808Z,16.44
2023-05-25T05:57:47.927Z,16.56
2023-05-25T06:00:16.729Z,16.66
2023-05-25T06:02:45.424Z,16.76
2023-05-25T06:05:14.459Z,16.91
2023-05-25T06:07:43.245Z,17.06
2023-05-25T06:10:12.047Z,17.21
2023-05-25T06:12:40.176Z,17.35
2023-05-25T06:15:09.221Z,17.51
2023-05-25T06:17:37.519Z,17.69
2023-05-25T06:20:06.884Z,17.85
2023-05-25T06:22:35.983Z,18.01
2023-05-25T06:25:04.773Z,18.25
2023-05-25T06:27:33.048Z,18.53
2023-05-25T06:30:01.227Z,18.90
2023-05-25T06:32:29.680Z,19.39
2023-05-25T06:34:58.344Z,20.16
2023-05-25T06:37:28.042Z,21.25
2023-05-25T06:39:57.668Z,22.38
2023-05-25T06:42:26.082Z,23.45
2023-05-25T06:44:55.145Z,24.33
2023-05-25T06:47:23.734Z,25.13
2023-05-25T06:49:53.108Z,25.81
2023-05-25T06:52:21.356Z,26.37
2023-05-25T06:54:50.368Z,26.99
2023-05-25T06:57:18.617Z,27.43
2023-05-25T06:59:47.602Z,27.88
2023-05-25T07:02:16.488Z,28.26
2023-05-25T07:04:46.253Z,28.52
2023-05-25T07:07:15.682Z,28.81
2023-05-25T07:09:45.013Z,28.84
2023-05-25T07:12:14.067Z,28.48
2023-05-25T07:14:43.596Z,28.38
2023-05-25T07:17:11.788Z,28.46
2023-05-25T07:19:40.388Z,29.05
2023-05-25T07:22:08.629Z,29.70
2023-05-25T07:24:37.243Z,30.18
2023-05-25T07:27:06.204Z,30.52
2023-05-25T07:29:34.299Z,31.02
2023-05-25T07:32:03.033Z,31.43
2023-05-25T07:34:31.628Z,31.87
2023-05-25T07:36:59.970Z,32.25
2023-05-25T07:39:29.612Z,32.56
2023-05-25T07:41:58.068Z,33.04
2023-05-25T07:44:26.718Z,33.43
2023-05-25T07:46:55.431Z,33.86
2023-05-25T07:49:23.897Z,34.37
2023-05-25T07:51:52.416Z,34.74
2023-05-25T07:54:21.012Z,35.16
2023-05-25T07:56:49.795Z,35.45
2023-05-25T07:59:18.349Z,35.50
2023-05-25T08:01:47.917Z,35.71
2023-05-25T08:04:16.247Z,36.01
2023-05-25T08:06:44.813Z,36.09
2023-05-25T08:09:13.570Z,35.97
2023-05-25T08:11:42.594Z,35.78
2023-05-25T08:14:11.600Z,35.28
2023-05-25T08:16:40.098Z,34.72
2023-05-25T08:19:09.475Z,34.09
2023-05-25T08:21:37.770Z,33.61
2023-05-25T08:24:07.429Z,32.95
2023-05-25T08:26:53.158Z,32.82
2023-05-25T08:29:22.376Z,32.97
2023-05-25T08:31:51.793Z,32.96
2023-05-25T08:34:20.690Z,32.97
2023-05-25T08:36:49.124Z,32.86
2023-05-25T08:39:17.200Z,32.87
2023-05-25T08:41:46.246Z,33.00
2023-05-25T08:44:14.831Z,33.16
2023-05-25T08:46:43.374Z,33.38
2023-05-25T08:49:13.767Z,33.38
2023-05-25T08:51:53.277Z,33.37
2023-05-25T08:54:43.989Z,33.40
2023-05-25T08:57:48.041Z,33.31
2023-05-25T09:00:17.481Z,32.87
2023-05-25T09:02:54.737Z,32.86
2023-05-25T09:05:24.343Z,32.56
2023-05-25T09:07:58.500Z,32.29
2023-05-25T09:10:28.617Z,32.12
2023-05-25T09:12:57.912Z,32.05
2023-05-25T09:15:26.323Z,32.30
2023-05-25T09:17:55.603Z,32.49
2023-05-25T09:20:25.433Z,32.98
2023-05-25T09:22:55.090Z,33.74
2023-05-25T09:25:23.997Z,34.54
2023-05-25T09:27:52.317Z,35.33
2023-05-25T09:30:20.660Z,36.15
2023-05-25T09:32:49.443Z,36.75
2023-05-25T09:35:17.919Z,37.39
2023-05-25T09:37:47.141Z,38.14
2023-05-25T09:40:17.531Z,38.73
2023-05-25T09:42:46.854Z,38.73
2023-05-25T09:45:15.122Z,39.06
2023-05-25T09:47:43.826Z,39.30
2023-05-25T09:50:12.985Z,39.67
2023-05-25T09:52:41.889Z,39.70
2023-05-25T09:55:10.092Z,39.44
2023-05-25T09:57:38.982Z,39.01
2023-05-25T10:00:09.326Z,39.24
2023-05-25T10:02:39.184Z,38.94
2023-05-25T10:05:08.088Z,38.46
2023-05-25T10:07:40.075Z,37.99
2023-05-25T10:10:10.457Z,37.37
2023-05-25T10:12:41.746Z,37.28
2023-05-25T10:15:12.588Z,36.71
2023-05-25T10:17:48.009Z,36.23
2023-05-25T10:20:17.155Z,36.11
2023-05-25T10:22:57.251Z,36.54
2023-05-25T10:25:29.333Z,36.80
2023-05-25T10:28:07.746Z,37.02
2023-05-25T10:30:36.971Z,36.96
2023-05-25T10:33:06.069Z,37.20
2023-05-25T10:35:46.745Z,37.57
2023-05-25T10:38:26.265Z,37.64
2023-05-25T10:40:56.336Z,37.85
2023-05-25T10:43:26.515Z,37.66
2023-05-25T10:45:56.917Z,37.52
2023-05-25T10:48:39.526Z,37.36
2023-05-25T10:51:10.090Z,37.05
2023-05-25T10:53:44.570Z,36.97
2023-05-25T10:56:13.631Z,37.32
2023-05-25T10:58:43.353Z,37.74
2023-05-25T11:01:14.164Z,37.75
2023-05-25T11:03:55.158Z,37.93
2023-05-25T11:07:02.068Z,37.92
2023-05-25T11:09:31.273Z,37.47
2023-05-25T11:11:59.446Z,37.94
2023-05-25T11:14:27.973Z,38.17
2023-05-25T11:17:15.859Z,37.64
2023-05-25T11:19:55.543Z,37.49
2023-05-25T11:22:35.198Z,36.55
2023-05-25T11:25:24.811Z,35.54
2023-05-25T11:27:53.395Z,34.22
2023-05-25T11:30:28.511Z,33.45
2023-05-25T11:32:57.145Z,33.15
2023-05-25T11:35:26.062Z,33.07
2023-05-25T11:37:54.671Z,32.88
2023-05-25T11:40:23.899Z,32.82
2023-05-25T11:42:53.848Z,32.96
2023-05-25T11:45:22.916Z,33.01
2023-05-25T11:47:51.146Z,33.09
2023-05-25T11:50:19.601Z,33.07
2023-05-25T11:52:48.195Z,33.05
2023-05-25T11:55:16.464Z,32.89
2023-05-25T11:57:44.728Z,32.35
2023-05-25T12:00:13.564Z,32.00
2023-05-25T12:02:42.001Z,31.87
2023-05-25T12:05:11.322Z,31.34
2023-05-25T12:07:44.614Z,30.57
2023-05-25T12:10:14.986Z,29.97
2023-05-25T12:12:51.929Z,29.38
2023-05-25T12:15:24.595Z,28.94
2023-05-25T12:17:54.480Z,28.64
2023-05-25T12:20:24.361Z,28.28
2023-05-25T12:22:53.167Z,28.14
2023-05-25T12:25:21.959Z,28.03
2023-05-25T12:28:10.644Z,27.59
2023-05-25T12:30:39.236Z,27.11
2023-05-25T12:33:13.395Z,26.80
2023-05-25T12:35:50.553Z,26.76
2023-05-25T12:38:20.928Z,26.84
2023-05-25T12:41:05.959Z,26.83
2023-05-25T12:43:41.185Z,26.73
2023-05-25T12:46:09.386Z,26.79
2023-05-25T12:48:37.737Z,26.61
2023-05-25T12:51:05.948Z,26.46
2023-05-25T12:53:52.709Z,26.10
2023-05-25T12:56:20.825Z,25.90
2023-05-25T12:58:48.949Z,25.99
2023-05-25T13:01:17.245Z,25.89
2023-05-25T13:03:45.550Z,25.64
2023-05-25T13:06:14.046Z,25.52
2023-05-25T13:08:42.393Z,25.45
2023-05-25T13:11:10.803Z,25.05
2023-05-25T13:13:38.890Z,24.55
2023-05-25T13:16:08.830Z,24.27
2023-05-25T13:18:37.045Z,24.12
2023-05-25T13:21:05.815Z,24.04
2023-05-25T13:23:34.112Z,23.83
2023-05-25T13:26:02.331Z,23.63
2023-05-25T13:28:31.570Z,23.65
2023-05-25T13:30:59.857Z,23.76
2023-05-25T13:33:28.051Z,23.75
2023-05-25T13:35:56.386Z,23.68
2023-05-25T13:38:27.630Z,23.63
2023-05-25T13:40:55.981Z,23.61
2023-05-25T13:43:24.256Z,23.65
2023-05-25T13:45:52.538Z,23.73
2023-05-25T13:48:21.418Z,23.81
2023-05-25T13:50:49.986Z,23.87
2023-05-25T13:53:18.679Z,23.94
2023-05-25T13:55:46.828Z,23.95
2023-05-25T13:58:15.496Z,23.99
2023-05-25T14:00:44.615Z,24.07
2023-05-25T14:03:13.278Z,24.15
2023-05-25T14:05:41.531Z,24.18
2023-05-25T14:08:10.157Z,24.17
2023-05-25T14:10:38.720Z,24.07
2023-05-25T14:13:06.835Z,23.94
2023-05-25T14:15:35.192Z,23.77
2023-05-25T14:18:03.932Z,23.59
2023-05-25T14:20:32.901Z,23.47
2023-05-25T14:23:01.770Z,23.25
2023-05-25T14:25:30.174Z,23.15
2023-05-25T14:27:58.460Z,23.13
2023-05-25T14:30:26.640Z,23.09
2023-05-25T14:32:54.834Z,23.04
2023-05-25T14:35:23.206Z,23.00
2023-05-25T14:37:51.462Z,22.90
2023-05-25T14:40:19.645Z,22.87
2023-05-25T14:42:50.997Z,22.84
2023-05-25T14:45:19.301Z,22.76
2023-05-25T14:47:47.939Z,22.59
2023-05-25T14:50:16.554Z,22.50
2023-05-25T14:52:45.454Z,22.54
2023-05-25T14:55:13.981Z,22.69
2023-05-25T14:57:42.689Z,22.81
2023-05-25T15:00:11.904Z,22.95
2023-05-25T15:02:40.110Z,23.02
2023-05-25T15:05:09.151Z,22.95
2023-05-25T15:07:41.274Z,22.84
2023-05-25T15:10:09.876Z,22.82
2023-05-25T15:12:38.071Z,22.85
2023-05-25T15:15:06.565Z,22.81
2023-05-25T15:17:34.868Z,22.85
2023-05-25T15:20:04.199Z,22.87
2023-05-25T15:22:33.042Z,22.84
2023-05-25T15:25:02.582Z,22.82
2023-05-25T15:27:31.118Z,22.73
2023-05-25T15:29:59.785Z,22.55
2023-05-25T15:32:28.769Z,22.38
2023-05-25T15:34:57.633Z,22.22
2023-05-25T15:37:30.803Z,22.18
2023-05-25T15:39:58.959Z,22.15
2023-05-25T15:42:27.389Z,22.07
2023-05-25T15:44:55.544Z,22.04
2023-05-25T15:47:24.190Z,22.07
2023-05-25T15:49:52.497Z,22.02
2023-05-25T15:52:21.918Z,21.84
2023-05-25T15:54:50.442Z,21.66
2023-05-25T15:57:18.871Z,21.60
2023-05-25T15:59:47.885Z,21.57
2023-05-25T16:02:16.855Z,21.55
2023-05-25T16:04:45.089Z,21.52
2023-05-25T16:07:13.948Z,21.44
2023-05-25T16:09:42.102Z,21.36
2023-05-25T16:12:10.664Z,21.32
2023-05-25T16:14:39.209Z,21.27
2023-05-25T16:17:08.070Z,21.22
2023-05-25T16:19:36.265Z,21.14
2023-05-25T16:22:04.676Z,21.10
2023-05-25T16:24:32.761Z,21.08
2023-05-25T16:27:00.822Z,21.04
2023-05-25T16:29:31.245Z,20.97
2023-05-25T16:31:59.428Z,20.91
2023-05-25T16:34:27.812Z,20.85
2023-05-25T16:36:56.047Z,20.75
2023-05-25T16:39:25.250Z,20.65
2023-05-25T16:41:53.486Z,20.50
2023-05-25T16:44:21.919Z,20.24
2023-05-25T16:46:49.974Z,19.87
2023-05-25T16:49:19.808Z,19.63
2023-05-25T16:51:48.376Z,19.51
2023-05-25T16:54:17.150Z,19.44
2023-05-25T16:56:45.772Z,19.35
2023-05-25T16:59:14.862Z,19.34
2023-05-25T17:01:44.461Z,19.30
2023-05-25T17:04:13.341Z,19.30
2023-05-25T17:06:42.217Z,19.23
2023-05-25T17:09:11.039Z,19.12
2023-05-25T17:11:39.933Z,19.13
2023-05-25T17:14:08.142Z,19.08
2023-05-25T17:16:36.489Z,19.05
2023-05-25T17:19:05.487Z,18.95
2023-05-25T17:21:35.625Z,18.90
2023-05-25T17:24:04.656Z,18.93
2023-05-25T17:26:34.027Z,18.97
2023-05-25T17:29:02.960Z,19.02
2023-05-25T17:31:31.794Z,19.05
2023-05-25T17:34:00.439Z,19.04
2023-05-25T17:36:28.907Z,18.99
2023-05-25T17:38:57.430Z,19.01
2023-05-25T17:41:26.249Z,19.09
2023-05-25T17:43:54.721Z,19.05
2023-05-25T17:46:23.475Z,18.96
2023-05-25T17:48:52.216Z,18.93
2023-05-25T17:51:21.832Z,18.86
2023-05-25T17:53:49.984Z,18.70
2023-05-25T17:56:19.941Z,18.58
2023-05-25T17:58:49.115Z,18.52
2023-05-25T18:01:17.511Z,18.56
2023-05-25T18:03:46.514Z,18.55
2023-05-25T18:06:15.332Z,18.46
2023-05-25T18:08:43.987Z,18.34
2023-05-25T18:11:12.128Z,18.24
2023-05-25T18:13:42.140Z,18.18
2023-05-25T18:16:11.801Z,18.12
2023-05-25T18:18:41.413Z,18.14
2023-05-25T18:21:10.535Z,18.11
2023-05-25T18:23:39.059Z,18.07
2023-05-25T18:26:07.219Z,18.02
2023-05-25T18:28:35.335Z,18.01
2023-05-25T18:31:03.449Z,18.02
2023-05-25T18:33:31.643Z,18.10
2023-05-25T18:35:59.896Z,18.19
2023-05-25T18:38:28.515Z,18.27
2023-05-25T18:40:56.888Z,18.34
2023-05-25T18:43:25.996Z,18.38
2023-05-25T18:45:54.129Z,18.47
2023-05-25T18:48:22.291Z,18.55
2023-05-25T18:50:51.203Z,18.55
2023-05-25T18:53:19.741Z,18.60
2023-05-25T18:55:47.997Z,18.61
2023-05-25T18:58:17.326Z,18.63
2023-05-25T19:00:48.482Z,18.62
2023-05-25T19:03:16.733Z,18.67
2023-05-25T19:05:46.526Z,18.71
2023-05-25T19:08:15.767Z,18.77
2023-05-25T19:10:43.962Z,18.83
2023-05-25T19:13:12.571Z,18.81
2023-05-25T19:15:41.615Z,18.71
2023-05-25T19:18:10.833Z,18.65
2023-05-25T19:20:39.177Z,18.67
2023-05-25T19:23:07.998Z,18.66
2023-05-25T19:25:36.334Z,18.66
2023-05-25T19:28:06.336Z,18.69
2023-05-25T19:30:35.085Z,18.69
2023-05-25T19:33:03.982Z,18.71
2023-05-25T19:35:32.536Z,18.77
2023-05-25T19:38:02.066Z,18.76
2023-05-25T19:40:33.711Z,18.77
2023-05-25T19:43:02.051Z,18.74
2023-05-25T19:45:30.330Z,18.73
2023-05-25T19:47:58.843Z,18.72
2023-05-25T19:50:26.976Z,18.72
2023-05-25T19:52:56.615Z,18.71
2023-05-25T19:55:25.638Z,18.71
2023-05-25T19:57:53.873Z,18.74
2023-05-25T20:00:26.795Z,18.73
2023-05-25T20:02:56.018Z,18.74
2023-05-25T20:05:25.475Z,18.70
2023-05-25T20:07:53.969Z,18.73
2023-05-25T20:10:22.641Z,18.74
2023-05-25T20:12:50.835Z,18.71
2023-05-25T20:15:19.837Z,18.62
2023-05-25T20:17:48.506Z,18.57
2023-05-25T20:20:16.924Z,18.48
2023-05-25T20:22:45.888Z,18.40
2023-05-25T20:25:14.468Z,18.38
2023-05-25T20:27:42.779Z,18.40
2023-05-25T20:30:12.022Z,18.40
2023-05-25T20:32:41.706Z,18.40
2023-05-25T20:35:10.248Z,18.38
2023-05-25T20:37:38.304Z,18.37
2023-05-25T20:40:07.180Z,18.39
2023-05-25T20:42:35.667Z,18.44
2023-05-25T20:45:05.393Z,18.45
2023-05-25T20:47:33.716Z,18.46
2023-05-25T20:50:02.657Z,18.46
2023-05-25T20:52:30.825Z,18.42
2023-05-25T20:54:59.072Z,18.36
2023-05-25T20:57:27.176Z,18.32
2023-05-25T20:59:55.429Z,18.32
2023-05-25T21:02:23.639Z,18.35
2023-05-25T21:04:52.652Z,18.34
2023-05-25T21:07:20.678Z,18.31
2023-05-25T21:09:49.844Z,18.31
2023-05-25T21:12:18.828Z,18.34
2023-05-25T21:14:49.173Z,18.34
2023-05-25T21:17:18.836Z,18.34
2023-05-25T21:19:47.706Z,18.33
2023-05-25T21:22:16.004Z,18.28
2023-05-25T21:24:45.394Z,18.27
2023-05-25T21:27:14.338Z,18.27
2023-05-25T21:29:42.877Z,18.28
2023-05-25T21:32:11.260Z,18.25
2023-05-25T21:34:39.404Z,18.25
2023-05-25T21:37:07.547Z,18.27
2023-05-25T21:39:36.355Z,18.22
2023-05-25T21:42:05.788Z,18.21
2023-05-25T21:44:35.009Z,18.24
2023-05-25T21:47:04.224Z,18.21
2023-05-25T21:49:34.050Z,18.22
2023-05-25T21:52:02.730Z,18.24
2023-05-25T21:54:31.531Z,18.24
2023-05-25T21:57:01.582Z,18.23
2023-05-25T21:59:29.744Z,18.18
2023-05-25T22:01:58.527Z,18.16
2023-05-25T22:04:26.762Z,18.13
2023-05-25T22:06:56.259Z,18.06
2023-05-25T22:09:25.515Z,18.00
2023-05-25T22:11:53.756Z,17.93
2023-05-25T22:14:23.522Z,17.89
2023-05-25T22:16:52.160Z,17.90
2023-05-25T22:19:20.403Z,17.88
2023-05-25T22:21:50.259Z,17.84
2023-05-25T22:24:19.114Z,17.83
2023-05-25T22:26:47.237Z,17.81
2023-05-25T22:29:16.480Z,17.79
2023-05-25T22:31:44.792Z,17.79
2023-05-25T22:34:14.197Z,17.81
2023-05-25T22:36:43.518Z,17.81
2023-05-25T22:39:11.803Z,17.86
2023-05-25T22:41:43.783Z,17.86
2023-05-25T22:44:12.829Z,17.81
2023-05-25T22:46:41.266Z,17.84
2023-05-25T22:49:10.448Z,17.86
2023-05-25T22:51:40.865Z,17.90
2023-05-25T22:54:10.550Z,17.93
2023-05-25T22:56:39.968Z,17.95
2023-05-25T22:59:12.622Z,17.93
2023-05-25T23:01:41.119Z,17.94
2023-05-25T23:04:10.697Z,17.98
2023-05-25T23:06:40.854Z,18.00
2023-05-25T23:09:13.283Z,18.04
2023-05-25T23:11:44.145Z,18.05
2023-05-25T23:14:15.189Z,18.05
2023-05-25T23:16:43.495Z,18.02
2023-05-25T23:19:12.995Z,18.06
2023-05-25T23:21:41.595Z,18.06
2023-05-25T23:24:10.409Z,18.05
2023-05-25T23:26:42.320Z,18.04
2023-05-25T23:29:11.785Z,18.03
2023-05-25T23:31:40.698Z,18.03
2023-05-25T23:34:12.558Z,18.03
2023-05-25T23:36:42.113Z,18.00
2023-05-25T23:39:11.334Z,17.99
2023-05-25T23:41:41.876Z,17.93
2023-05-25T23:44:10.919Z,17.92
2023-05-25T23:46:39.304Z,17.92
2023-05-25T23:49:08.295Z,17.88
2023-05-25T23:51:37.945Z,17.83
2023-05-25T23:54:06.621Z,17.79
2023-05-25T23:56:34.790Z,17.77
2023-05-25T23:59:03.998Z,17.77
